Time;durP1;ratioP1;P1;durP2;ratioP2;P2;SDS_P1;SDS_P2;PMS_P1;PMS_P2;Temp;Humidity;BMP_temperature;BMP_pressure;BME280_temperature;BME280_humidity;BME280_pressure;Samples;Min_cycle;Max_cycle;Signal;HPM_P1;HPM_P2
2024/03/20 00:01:53;;;;;;;;;;;;;;;9.92;61.04;99715.19;5032000;28;19917;-83
2024/03/20 00:04:19;;;;;;;;;;;;;;;9.90;61.29;99716.34;5030818;28;19978;-83
2024/03/20 00:06:44;;;;;;;;;;;;;;;9.89;60.89;99712.88;5032197;28;19928;-83
2024/03/20 00:09:09;;;;;;;;;;;;;;;9.88;60.99;99708.59;5032062;28;20378;-83
2024/03/20 00:11:35;;;;;;;;;;;;;;;9.84;61.36;99715.22;5031905;28;19920;-83
2024/03/20 00:14:01;;;;;;;;;;;;;;;9.83;61.40;99708.28;5032069;28;19913;-83
2024/03/20 00:16:26;;;;;;;;;;;;;;;9.85;61.04;99714.22;5031483;28;20313;-82
2024/03/20 00:18:51;;;;;;;;;;;;;;;9.86;60.78;99723.78;5032213;28;19920;-83
2024/03/20 00:21:16;;;;;;;;;;;;;;;9.83;60.57;99717.03;5032050;28;20004;-83
2024/03/20 00:23:43;;;;;;;;;;;;;;;9.83;60.57;99721.47;5031970;28;20386;-83
2024/03/20 00:26:08;;;;;;;;;;;;;;;9.82;60.38;99717.19;5030189;28;19971;-82
2024/03/20 00:28:34;;;;;;;;;;;;;;;9.83;60.30;99717.03;5031589;28;19913;-82
2024/03/20 00:31:01;;;;;;;;;;;;;;;9.82;60.50;99712.75;5030557;28;19913;-82
2024/03/20 00:33:26;;;;;;;;;;;;;;;9.82;60.66;99720.66;5031878;28;19913;-82
2024/03/20 00:35:51;;;;;;;;;;;;;;;9.82;60.84;99725.09;5031812;28;19967;-82
2024/03/20 00:38:16;;;;;;;;;;;;;;;9.79;60.72;99720.16;5032153;28;20313;-82
2024/03/20 00:40:42;;;;;;;;;;;;;;;9.77;61.53;99724.78;5031820;28;19913;-82
2024/03/20 00:43:07;;;;;;;;;;;;;;;9.79;60.60;99722.81;5031693;28;20394;-83
2024/03/20 00:45:32;;;;;;;;;;;;;;;9.81;60.95;99728.72;5029745;28;19924;-83
2024/03/20 00:47:57;;;;;;;;;;;;;;;9.82;60.63;99722.47;5031351;28;19978;-83
2024/03/20 00:50:23;;;;;;;;;;;;;;;9.78;60.43;99724.63;5031626;28;19913;-83
2024/03/20 00:52:48;;;;;;;;;;;;;;;9.77;61.13;99722.97;5031751;28;20318;-82
2024/03/20 00:55:13;;;;;;;;;;;;;;;9.78;60.92;99721.16;5030286;28;19924;-82
2024/03/20 00:57:39;;;;;;;;;;;;;;;9.77;61.10;99724.78;5031644;28;19924;-82
2024/03/20 01:00:05;;;;;;;;;;;;;;;9.79;60.41;99728.09;5031589;28;19921;-82
2024/03/20 01:02:30;;;;;;;;;;;;;;;9.76;60.45;99721.34;5031328;28;19921;-83
2024/03/20 01:04:57;;;;;;;;;;;;;;;9.77;60.64;99725.63;5031440;28;19968;-82
2024/03/20 01:07:23;;;;;;;;;;;;;;;9.77;60.20;99727.44;5031445;28;19917;-83
2024/03/20 01:09:48;;;;;;;;;;;;;;;9.77;60.20;99725.63;5031720;28;19920;-82
2024/03/20 01:12:13;;;;;;;;;;;;;;;9.76;60.61;99726.59;5031207;28;19948;-82
2024/03/20 01:14:39;;;;;;;;;;;;;;;9.81;60.40;99723.47;5031330;28;19913;-82
2024/03/20 01:17:04;;;;;;;;;;;;;;;9.79;60.64;99725.44;5030170;28;19924;-82
2024/03/20 01:19:29;;;;;;;;;;;;;;;9.78;60.19;99721.97;5031360;28;19956;-82
2024/03/20 01:21:55;;;;;;;;;;;;;;;9.77;60.89;99722.16;5031611;28;20355;-82
2024/03/20 01:24:20;;;;;;;;;;;;;;;9.73;61.30;99721.66;5031353;28;19921;-82
2024/03/20 01:26:46;;;;;;;;;;;;;;;9.73;61.04;99726.13;5031100;28;19917;-83
2024/03/20 01:29:11;;;;;;;;;;;;;;;9.74;61.25;99718.03;5031274;28;20390;-83
2024/03/20 01:31:36;;;;;;;;;;;;;;;9.74;61.71;99720.69;5031233;28;19913;-83
2024/03/20 01:34:01;;;;;;;;;;;;;;;9.73;61.45;99721.66;5031282;28;20382;-83
2024/03/20 01:36:27;;;;;;;;;;;;;;;9.72;60.96;99724.47;5031354;28;20002;-83
2024/03/20 01:38:52;;;;;;;;;;;;;;;9.72;60.78;99724.47;5031143;28;19987;-82
2024/03/20 01:41:17;;;;;;;;;;;;;;;9.70;61.31;99722.00;5031279;28;19913;-82
2024/03/20 01:43:51;;;;;;;;;;;;;;;9.71;61.71;99722.81;5031347;28;19971;-82
2024/03/20 01:46:30;;;;;;;;;;;;;;;9.68;60.92;99721.34;5031237;28;19921;-82
2024/03/20 01:48:56;;;;;;;;;;;;;;;9.65;61.13;99724.28;5030935;28;19922;-82
2024/03/20 01:51:21;;;;;;;;;;;;;;;9.63;61.16;99721.00;5030901;28;19993;-83
2024/03/20 01:53:47;;;;;;;;;;;;;;;9.63;61.43;99726.28;5031072;28;20000;-83
2024/03/20 01:56:12;;;;;;;;;;;;;;;9.61;61.96;99724.78;5029669;28;19935;-83
2024/03/20 01:58:38;;;;;;;;;;;;;;;9.55;61.56;99735.00;5033643;28;19983;-83
2024/03/20 02:01:03;;;;;;;;;;;;;;;9.53;61.51;99726.44;5034771;28;20390;-83
2024/03/20 02:03:28;;;;;;;;;;;;;;;9.51;61.25;99730.25;5034878;28;19983;-82
2024/03/20 02:05:54;;;;;;;;;;;;;;;9.48;61.24;99725.31;5034444;28;19921;-82
2024/03/20 02:08:19;;;;;;;;;;;;;;;9.44;61.13;99738.00;5034597;28;19913;-82
2024/03/20 02:10:45;;;;;;;;;;;;;;;9.45;61.59;99738.81;5034427;28;20306;-83
2024/03/20 02:13:10;;;;;;;;;;;;;;;9.44;61.88;99751.16;5034389;28;19914;-83
2024/03/20 02:15:37;;;;;;;;;;;;;;;9.43;61.59;99754.78;5034275;28;19920;-83
2024/03/20 02:18:03;;;;;;;;;;;;;;;9.44;61.00;99756.44;5034225;28;20309;-83
2024/03/20 02:20:28;;;;;;;;;;;;;;;9.45;61.25;99752.81;5034151;28;19913;-83
2024/03/20 02:22:54;;;;;;;;;;;;;;;9.43;61.59;99753.97;5034051;28;19913;-83
2024/03/20 02:25:20;;;;;;;;;;;;;;;9.39;61.65;99760.56;5034044;28;20390;-84
2024/03/20 02:27:46;;;;;;;;;;;;;;;9.37;61.61;99759.91;5033825;28;19917;-82
2024/03/20 02:30:13;;;;;;;;;;;;;;;9.36;61.70;99758.25;5033950;28;19913;-82
2024/03/20 02:32:39;;;;;;;;;;;;;;;9.33;62.29;99769.13;5032598;28;19995;-83
2024/03/20 02:35:05;;;;;;;;;;;;;;;9.29;62.45;99771.25;5033901;28;19917;-83
2024/03/20 02:37:30;;;;;;;;;;;;;;;9.29;62.22;99771.25;5032563;28;20287;-83
2024/03/20 02:39:55;;;;;;;;;;;;;;;9.26;62.30;99771.59;5033803;28;20004;-83
2024/03/20 02:42:22;;;;;;;;;;;;;;;9.24;62.51;99768.28;5032668;28;20307;-82
2024/03/20 02:44:48;;;;;;;;;;;;;;;9.23;61.88;99777.19;5033843;28;19913;-82
2024/03/20 02:47:13;;;;;;;;;;;;;;;9.22;62.39;99784.25;5033436;28;19921;-83
2024/03/20 02:49:39;;;;;;;;;;;;;;;9.22;62.86;99779.00;5033556;28;20000;-82
2024/03/20 02:52:04;;;;;;;;;;;;;;;9.27;61.41;99790.84;5032310;28;19914;-82
2024/03/20 02:54:29;;;;;;;;;;;;;;;9.24;61.51;99786.75;5033510;28;19913;-82
2024/03/20 02:56:54;;;;;;;;;;;;;;;9.20;61.86;99785.41;5033202;28;20422;-82
2024/03/20 02:59:20;;;;;;;;;;;;;;;9.10;60.85;99796.09;5033271;28;20012;-82
2024/03/20 03:01:45;;;;;;;;;;;;;;;8.91;60.80;99793.75;5031664;28;19913;-83
2024/03/20 03:04:10;;;;;;;;;;;;;;;8.75;61.12;99798.97;5033189;28;20012;-81
2024/03/20 03:06:35;;;;;;;;;;;;;;;8.68;60.62;99797.94;5033294;28;19971;-81
2024/03/20 03:09:01;;;;;;;;;;;;;;;8.58;60.64;99792.81;5032453;28;19989;-82
2024/03/20 03:11:27;;;;;;;;;;;;;;;8.51;60.17;99797.06;5033136;28;19967;-82
2024/03/20 03:13:52;;;;;;;;;;;;;;;8.45;60.32;99790.63;5033130;28;20394;-82
2024/03/20 03:16:17;;;;;;;;;;;;;;;8.42;59.83;99792.75;5031701;28;19963;-81
2024/03/20 03:18:43;;;;;;;;;;;;;;;8.37;59.72;99795.03;5032923;28;20020;-84
2024/03/20 03:21:09;;;;;;;;;;;;;;;8.36;59.88;99802.09;5032931;28;19939;-82
2024/03/20 03:23:34;;;;;;;;;;;;;;;8.34;59.66;99809.34;5032924;28;19992;-82
2024/03/20 03:26:00;;;;;;;;;;;;;;;8.33;59.31;99814.72;5032726;28;20419;-83
2024/03/20 03:28:25;;;;;;;;;;;;;;;8.18;59.69;99804.78;5032708;28;20430;-83
2024/03/20 03:30:50;;;;;;;;;;;;;;;8.16;59.86;99808.50;5032763;28;19970;-82
2024/03/20 03:33:15;;;;;;;;;;;;;;;8.17;60.12;99818.88;5032574;28;19920;-83
2024/03/20 03:35:41;;;;;;;;;;;;;;;8.19;59.12;99814.31;5031483;28;20048;-83
2024/03/20 03:38:06;;;;;;;;;;;;;;;8.19;59.09;99816.94;5032668;28;19913;-83
2024/03/20 03:40:31;;;;;;;;;;;;;;;8.16;59.37;99821.66;5032660;28;19917;-83
2024/03/20 03:42:56;;;;;;;;;;;;;;;8.14;58.96;99815.75;5032658;28;20405;-83
2024/03/20 03:45:22;;;;;;;;;;;;;;;8.18;58.84;99817.94;5031170;28;19913;-83
2024/03/20 03:47:47;;;;;;;;;;;;;;;8.23;58.55;99825.34;5032904;28;19987;-82
2024/03/20 03:50:12;;;;;;;;;;;;;;;8.22;58.06;99826.34;5032374;28;19917;-82
2024/03/20 03:52:38;;;;;;;;;;;;;;;8.22;58.88;99819.28;5032633;28;20295;-83
2024/03/20 03:55:04;;;;;;;;;;;;;;;8.23;58.56;99822.72;5032468;28;19913;-82
2024/03/20 03:57:29;;;;;;;;;;;;;;;8.19;58.12;99830.09;5032467;28;20393;-82
2024/03/20 03:59:55;;;;;;;;;;;;;;;8.16;58.09;99825.13;5032392;28;19924;-83
2024/03/20 04:02:21;;;;;;;;;;;;;;;8.18;58.71;99827.63;5032090;28;19925;-82
2024/03/20 04:04:46;;;;;;;;;;;;;;;8.18;58.31;99825.81;5032585;28;19920;-83
2024/03/20 04:07:13;;;;;;;;;;;;;;;8.18;58.12;99825.00;5031462;28;20477;-82
2024/03/20 04:09:39;;;;;;;;;;;;;;;8.12;57.49;99830.84;5032101;28;19917;-82
2024/03/20 04:12:04;;;;;;;;;;;;;;;8.10;57.62;99835.44;5032098;28;20356;-83
2024/03/20 04:14:29;;;;;;;;;;;;;;;8.11;57.89;99830.03;5032140;28;19967;-82
2024/03/20 04:16:55;;;;;;;;;;;;;;;8.06;56.39;99839.34;5032189;28;20361;-83
2024/03/20 04:19:20;;;;;;;;;;;;;;;8.04;57.44;99838.69;5032085;28;20378;-82
2024/03/20 04:21:45;;;;;;;;;;;;;;;7.97;56.55;99841.94;5031908;28;20302;-82
2024/03/20 04:24:10;;;;;;;;;;;;;;;7.88;56.26;99845.47;5032231;28;19913;-81
2024/03/20 04:26:36;;;;;;;;;;;;;;;7.87;56.06;99843.84;5031678;28;20309;-81
2024/03/20 04:29:01;;;;;;;;;;;;;;;7.88;56.30;99847.28;5031752;28;20335;-82
2024/03/20 04:31:26;;;;;;;;;;;;;;;7.86;55.71;99854.50;5031657;28;19920;-81
2024/03/20 04:33:51;;;;;;;;;;;;;;;7.81;53.31;99859.38;5031626;28;19996;-83
2024/03/20 04:36:17;;;;;;;;;;;;;;;7.80;53.20;99860.38;5031903;28;19971;-82
2024/03/20 04:38:43;;;;;;;;;;;;;;;7.82;54.77;99867.13;5031840;28;19920;-83
2024/03/20 04:41:09;;;;;;;;;;;;;;;7.82;53.38;99869.75;5031834;28;19999;-83
2024/03/20 04:43:34;;;;;;;;;;;;;;;7.87;54.08;99867.50;5031666;28;19913;-81
2024/03/20 04:45:59;;;;;;;;;;;;;;;7.87;52.88;99874.56;5031476;28;19917;-81
2024/03/20 04:48:26;;;;;;;;;;;;;;;7.89;52.88;99876.06;5031503;28;19921;-82
2024/03/20 04:50:51;;;;;;;;;;;;;;;7.89;52.68;99878.69;5031271;28;19913;-83
2024/03/20 04:53:17;;;;;;;;;;;;;;;7.88;52.27;99878.84;5031373;28;20386;-83
2024/03/20 04:55:42;;;;;;;;;;;;;;;7.87;52.33;99877.19;5031485;28;19967;-83
2024/03/20 04:58:07;;;;;;;;;;;;;;;7.83;48.95;99886.34;5031797;28;19913;-81
2024/03/20 05:00:33;;;;;;;;;;;;;;;7.79;51.83;99883.19;5031334;28;19914;-82
2024/03/20 05:02:58;;;;;;;;;;;;;;;7.77;52.35;99887.78;5031010;28;19921;-81
2024/03/20 05:05:23;;;;;;;;;;;;;;;7.74;53.29;99885.47;5031424;28;19917;-82
2024/03/20 05:07:48;;;;;;;;;;;;;;;7.70;51.07;99886.75;5031501;28;19971;-81
2024/03/20 05:10:16;;;;;;;;;;;;;;;7.77;52.24;99892.22;5031611;28;20377;-81
2024/03/20 05:12:41;;;;;;;;;;;;;;;7.80;51.58;99895.38;5031465;28;19913;-81
2024/03/20 05:15:06;;;;;;;;;;;;;;;7.89;52.99;99899.72;5031492;28;20291;-83
2024/03/20 05:17:32;;;;;;;;;;;;;;;7.88;52.39;99902.50;5031226;28;20062;-84
2024/03/20 05:19:57;;;;;;;;;;;;;;;7.93;52.73;99911.56;5031178;28;20310;-82
2024/03/20 05:22:22;;;;;;;;;;;;;;;7.95;50.79;99899.09;5031251;28;19913;-81
2024/03/20 05:24:51;;;;;;;;;;;;;;;7.91;51.60;99905.66;5031516;28;19913;-82
2024/03/20 05:27:16;;;;;;;;;;;;;;;7.85;51.47;99911.50;5031356;28;19917;-84
2024/03/20 05:29:42;;;;;;;;;;;;;;;7.92;52.14;99919.63;5031555;28;20404;-82
2024/03/20 05:32:07;;;;;;;;;;;;;;;7.96;52.17;99913.91;5032921;28;20417;-82
2024/03/20 05:34:33;;;;;;;;;;;;;;;7.98;49.67;99926.91;5035202;28;20353;-82
2024/03/20 05:36:58;;;;;;;;;;;;;;;8.01;51.46;99923.97;5034888;28;19913;-82
2024/03/20 05:39:23;;;;;;;;;;;;;;;8.05;51.36;99922.69;5033539;28;19913;-82
2024/03/20 05:41:49;;;;;;;;;;;;;;;8.05;50.02;99927.94;5034861;28;19936;-82
2024/03/20 05:44:16;;;;;;;;;;;;;;;7.94;50.91;99926.38;5034813;28;19999;-83
2024/03/20 05:46:43;;;;;;;;;;;;;;;7.95;50.44;99930.66;5034690;28;20375;-84
2024/03/20 05:49:08;;;;;;;;;;;;;;;8.02;51.35;99930.88;5034891;28;19959;-81
2024/03/20 05:51:34;;;;;;;;;;;;;;;8.04;51.22;99928.91;5034730;28;19956;-82
2024/03/20 05:53:59;;;;;;;;;;;;;;;8.02;50.93;99933.50;5034504;28;19921;-83
2024/03/20 05:56:24;;;;;;;;;;;;;;;7.92;49.43;99940.66;5033204;28;19913;-83
2024/03/20 05:58:50;;;;;;;;;;;;;;;7.91;49.03;99945.06;5034698;28;19914;-81
2024/03/20 06:01:15;;;;;;;;;;;;;;;7.93;51.11;99940.50;5034559;28;20032;-83
2024/03/20 06:03:41;;;;;;;;;;;;;;;7.79;50.55;99946.28;5034236;28;20409;-83
2024/03/20 06:06:06;;;;;;;;;;;;;;;7.72;49.73;99950.50;5034207;28;20390;-82
2024/03/20 06:08:31;;;;;;;;;;;;;;;7.72;48.40;99944.41;5032875;28;19917;-81
2024/03/20 06:10:58;;;;;;;;;;;;;;;7.73;49.63;99949.50;5034325;28;20022;-81
2024/03/20 06:13:24;;;;;;;;;;;;;;;7.80;49.59;99945.31;5034376;28;20003;-83
2024/03/20 06:15:49;;;;;;;;;;;;;;;7.83;49.79;99957.31;5034660;28;19960;-82
2024/03/20 06:18:14;;;;;;;;;;;;;;;7.79;48.17;99953.34;5034165;28;20374;-83
2024/03/20 06:20:40;;;;;;;;;;;;;;;7.83;49.68;99957.31;5034172;28;19917;-82
2024/03/20 06:23:05;;;;;;;;;;;;;;;7.96;50.53;99960.41;5033908;28;19972;-82
2024/03/20 06:25:31;;;;;;;;;;;;;;;8.03;48.11;99961.44;5033850;28;19913;-83
2024/03/20 06:27:56;;;;;;;;;;;;;;;8.11;49.57;99964.16;5033705;28;20501;-83
2024/03/20 06:30:25;;;;;;;;;;;;;;;8.12;49.27;99960.53;5032671;28;20313;-83
2024/03/20 06:32:50;;;;;;;;;;;;;;;8.16;47.75;99961.06;5033833;28;19920;-83
2024/03/20 06:35:16;;;;;;;;;;;;;;;8.19;48.17;99958.16;5033992;28;20370;-83
2024/03/20 06:37:41;;;;;;;;;;;;;;;8.13;46.80;99964.00;5033898;28;19949;-82
2024/03/20 06:40:07;;;;;;;;;;;;;;;8.20;49.36;99976.41;5033819;28;19913;-82
2024/03/20 06:42:32;;;;;;;;;;;;;;;8.14;47.04;99970.91;5032423;28;19913;-83
2024/03/20 06:44:58;;;;;;;;;;;;;;;8.15;46.57;99978.66;5031220;28;19920;-82
2024/03/20 06:47:24;;;;;;;;;;;;;;;8.23;47.75;99975.28;5033647;28;19917;-82
2024/03/20 06:49:49;;;;;;;;;;;;;;;8.33;48.51;99978.69;5032440;28;19917;-83
2024/03/20 06:52:16;;;;;;;;;;;;;;;8.41;48.39;99985.81;5032329;28;19920;-82
2024/03/20 06:54:43;;;;;;;;;;;;;;;8.47;49.17;99982.56;5032451;28;20312;-82
2024/03/20 06:57:11;;;;;;;;;;;;;;;8.53;48.59;99990.66;5033224;28;19998;-83
2024/03/20 06:59:40;;;;;;;;;;;;;;;8.57;48.34;99993.81;5037941;28;19916;-83
2024/03/20 07:02:06;;;;;;;;;;;;;;;8.52;48.16;99993.47;5035991;28;19928;-83
2024/03/20 07:04:31;;;;;;;;;;;;;;;8.59;47.16;99995.31;5032960;28;19936;-83
2024/03/20 07:06:57;;;;;;;;;;;;;;;8.46;47.82;99987.00;5042625;28;20389;-83
2024/03/20 07:09:22;;;;;;;;;;;;;;;8.42;47.96;99990.09;5035654;28;19991;-82
2024/03/20 07:11:48;;;;;;;;;;;;;;;8.52;48.11;99998.72;5052159;28;19917;-83
2024/03/20 07:14:18;;;;;;;;;;;;;;;8.59;46.39;99997.13;5048935;28;19928;-81
2024/03/20 07:16:46;;;;;;;;;;;;;;;8.71;47.22;100006.41;5054194;28;20003;-82
2024/03/20 07:19:12;;;;;;;;;;;;;;;8.62;45.83;100003.88;5039775;28;19924;-83
2024/03/20 07:21:38;;;;;;;;;;;;;;;8.71;46.12;100009.06;5031570;28;19919;-81
2024/03/20 07:24:03;;;;;;;;;;;;;;;8.80;47.08;100004.66;5032657;28;19917;-83
2024/03/20 07:26:32;;;;;;;;;;;;;;;8.78;46.52;99998.72;5033023;28;20352;-83
2024/03/20 07:28:57;;;;;;;;;;;;;;;8.86;46.78;100010.13;5032802;28;19961;-82
2024/03/20 07:31:22;;;;;;;;;;;;;;;8.94;47.64;100005.94;5032823;28;19920;-83
2024/03/20 07:33:48;;;;;;;;;;;;;;;8.99;44.77;100003.66;5033052;28;20386;-83
2024/03/20 07:36:13;;;;;;;;;;;;;;;9.05;45.42;100006.47;5047730;28;19921;-83
2024/03/20 07:38:38;;;;;;;;;;;;;;;9.02;45.89;100008.59;5052599;28;19913;-82
2024/03/20 07:41:03;;;;;;;;;;;;;;;9.07;45.01;100012.41;5052589;28;20469;-83
2024/03/20 07:43:29;;;;;;;;;;;;;;;9.16;45.11;100006.19;5047609;28;19928;-83
2024/03/20 07:45:55;;;;;;;;;;;;;;;9.13;44.42;100001.25;5047831;28;19924;-82
2024/03/20 07:48:20;;;;;;;;;;;;;;;9.28;44.08;100006.75;5051169;28;19913;-83
2024/03/20 07:50:45;;;;;;;;;;;;;;;9.37;44.79;100018.16;5047264;28;19917;-84
2024/03/20 07:53:10;;;;;;;;;;;;;;;9.48;44.74;100007.31;5032208;28;19917;-83
2024/03/20 07:55:36;;;;;;;;;;;;;;;9.55;44.16;100010.97;5033146;28;19921;-83
2024/03/20 07:58:02;;;;;;;;;;;;;;;9.63;44.78;100021.53;5033032;28;20457;-83
2024/03/20 08:00:31;;;;;;;;;;;;;;;9.73;45.02;100011.72;5061098;28;19978;-81
2024/03/20 08:02:57;;;;;;;;;;;;;;;9.78;45.24;100011.22;5052093;28;19997;-82
2024/03/20 08:05:28;;;;;;;;;;;;;;;9.85;43.04;100014.88;5051995;28;19963;-85
2024/03/20 08:07:53;;;;;;;;;;;;;;;9.91;42.93;100010.75;5050105;28;19928;-82
2024/03/20 08:10:19;;;;;;;;;;;;;;;9.91;44.40;100013.38;5039109;28;19921;-83
2024/03/20 08:12:44;;;;;;;;;;;;;;;9.84;43.56;100011.41;5034025;28;19917;-83
2024/03/20 08:15:10;;;;;;;;;;;;;;;9.89;43.63;100013.56;5036205;28;19917;-82
2024/03/20 08:17:36;;;;;;;;;;;;;;;10.07;44.62;100001.03;5040274;28;19913;-83
2024/03/20 08:20:02;;;;;;;;;;;;;;;10.12;43.92;100006.66;5037571;28;19917;-82
2024/03/20 08:22:29;;;;;;;;;;;;;;;10.28;43.41;100011.16;5031839;28;19917;-83
2024/03/20 08:24:55;;;;;;;;;;;;;;;10.39;45.16;100018.75;5030187;28;20318;-82
2024/03/20 08:27:24;;;;;;;;;;;;;;;10.41;43.67;100023.88;5031184;28;19917;-82
2024/03/20 08:29:51;;;;;;;;;;;;;;;10.51;43.82;100013.97;5038687;28;20394;-83
2024/03/20 08:32:16;;;;;;;;;;;;;;;10.66;43.52;100007.03;5036750;28;20360;-82
2024/03/20 08:34:42;;;;;;;;;;;;;;;10.66;42.44;100007.03;5037091;28;19917;-82
2024/03/20 08:37:07;;;;;;;;;;;;;;;10.67;42.69;99997.28;5031448;28;20018;-82
2024/03/20 08:39:32;;;;;;;;;;;;;;;10.77;43.27;100004.03;5031426;28;20416;-83
2024/03/20 08:41:58;;;;;;;;;;;;;;;10.80;41.58;100003.72;5035760;28;19921;-82
2024/03/20 08:44:24;;;;;;;;;;;;;;;10.83;41.43;100010.47;5033115;28;20454;-82
2024/03/20 08:46:49;;;;;;;;;;;;;;;10.88;39.82;99994.13;5031536;28;19947;-82
2024/03/20 08:49:14;;;;;;;;;;;;;;;11.07;42.06;99999.84;5031534;28;19996;-82
2024/03/20 08:51:40;;;;;;;;;;;;;;;11.24;42.92;99992.72;5030346;28;20287;-81
2024/03/20 08:54:05;;;;;;;;;;;;;;;11.34;42.05;99995.16;5051461;28;19913;-82
2024/03/20 08:56:32;;;;;;;;;;;;;;;11.27;41.29;99995.00;5032323;28;19917;-82
2024/03/20 08:58:57;;;;;;;;;;;;;;;11.37;41.23;99998.28;5031344;28;19925;-82
2024/03/20 09:01:22;;;;;;;;;;;;;;;11.45;41.49;99994.75;5035601;28;20386;-83
2024/03/20 09:03:48;;;;;;;;;;;;;;;11.62;40.36;99992.84;5038854;28;19959;-81
2024/03/20 09:06:13;;;;;;;;;;;;;;;11.67;39.42;100001.91;5033073;28;19947;-81
2024/03/20 09:08:38;;;;;;;;;;;;;;;11.84;41.96;100000.03;5042540;28;19932;-82
2024/03/20 09:11:04;;;;;;;;;;;;;;;11.94;39.78;99989.25;5037066;28;19917;-81
2024/03/20 09:13:31;;;;;;;;;;;;;;;12.12;40.96;99997.72;5049979;28;19917;-82
2024/03/20 09:15:56;;;;;;;;;;;;;;;12.18;40.59;100001.47;5046821;28;19999;-81
2024/03/20 09:18:21;;;;;;;;;;;;;;;12.26;41.07;99989.00;5046429;28;20090;-81
2024/03/20 09:20:46;;;;;;;;;;;;;;;12.40;38.13;99990.03;5048459;28;19921;-83
2024/03/20 09:23:12;;;;;;;;;;;;;;;12.60;39.08;99988.53;5055096;28;19919;-82
2024/03/20 09:25:37;;;;;;;;;;;;;;;12.73;38.72;99993.25;5052695;28;19924;-82
2024/03/20 09:28:02;;;;;;;;;;;;;;;12.92;36.44;99994.53;5050620;28;19921;-83
2024/03/20 09:30:28;;;;;;;;;;;;;;;13.02;38.98;100003.88;5041121;28;19917;-82
2024/03/20 09:32:53;;;;;;;;;;;;;;;13.24;36.83;99993.38;5052186;28;20007;-82
2024/03/20 09:35:20;;;;;;;;;;;;;;;13.44;38.32;99991.81;5053152;28;20003;-82
2024/03/20 09:37:46;;;;;;;;;;;;;;;13.66;37.51;100000.66;5039687;28;19944;-83
2024/03/20 09:40:11;;;;;;;;;;;;;;;13.79;39.95;99978.75;5055676;28;20369;-82
2024/03/20 09:42:40;;;;;;;;;;;;;;;13.89;36.89;99984.56;5034422;28;19924;-83
2024/03/20 09:45:06;;;;;;;;;;;;;;;13.99;37.32;99987.72;5047205;28;19917;-82
2024/03/20 09:47:34;;;;;;;;;;;;;;;13.90;36.65;99979.06;5034338;28;19921;-82
2024/03/20 09:49:59;;;;;;;;;;;;;;;13.92;35.11;99992.16;5058010;28;19952;-81
2024/03/20 09:52:25;;;;;;;;;;;;;;;13.85;37.40;99992.09;5071644;28;19939;-81
2024/03/20 09:54:53;;;;;;;;;;;;;;;13.66;36.62;99976.78;5072800;28;19923;-81
2024/03/20 09:57:19;;;;;;;;;;;;;;;13.33;37.65;99995.75;5070315;28;20015;-82
2024/03/20 09:59:51;;;;;;;;;;;;;;;13.30;37.49;99982.84;5049005;28;20377;-82
2024/03/20 10:02:16;;;;;;;;;;;;;;;13.64;36.79;99978.78;5051555;28;19971;-81
2024/03/20 10:04:42;;;;;;;;;;;;;;;14.03;36.88;99988.19;5053796;28;19948;-82
2024/03/20 10:07:14;;;;;;;;;;;;;;;14.10;36.30;99989.06;5054012;28;20015;-82
2024/03/20 10:09:44;;;;;;;;;;;;;;;13.93;35.61;99981.34;5052176;28;20019;-82
2024/03/20 10:12:11;;;;;;;;;;;;;;;13.89;35.48;99985.41;5052091;28;19943;-82
2024/03/20 10:14:37;;;;;;;;;;;;;;;13.78;36.28;99990.38;5053707;28;19920;-82
2024/03/20 10:17:13;;;;;;;;;;;;;;;14.13;36.74;99981.56;5044417;28;20321;-81
2024/03/20 10:19:38;;;;;;;;;;;;;;;14.43;32.89;99976.97;5042409;28;19919;-81
2024/03/20 10:22:04;;;;;;;;;;;;;;;14.66;34.45;99975.91;5052543;28;19912;-81
2024/03/20 10:24:31;;;;;;;;;;;;;;;14.72;36.08;99981.25;5032963;28;19964;-81
2024/03/20 10:26:56;;;;;;;;;;;;;;;14.43;34.46;99971.63;5033017;28;19917;-81
2024/03/20 10:29:24;;;;;;;;;;;;;;;14.18;34.26;99973.03;5033627;28;20435;-81
2024/03/20 10:31:50;;;;;;;;;;;;;;;13.86;35.18;99964.53;5037892;28;19940;-81
2024/03/20 10:34:17;;;;;;;;;;;;;;;13.77;36.13;99968.31;5033508;28;20036;-81
2024/03/20 10:36:43;;;;;;;;;;;;;;;13.67;35.33;99962.50;5033632;28;19913;-81
2024/03/20 10:39:17;;;;;;;;;;;;;;;13.54;35.74;99968.47;5039270;28;20390;-81
2024/03/20 10:41:43;;;;;;;;;;;;;;;13.44;34.28;99964.47;5033449;28;19913;-81
2024/03/20 10:44:13;;;;;;;;;;;;;;;13.43;37.14;99968.13;5032065;28;20596;-82
2024/03/20 10:46:40;;;;;;;;;;;;;;;13.33;35.92;99966.56;5032466;28;19918;-81
2024/03/20 10:49:06;;;;;;;;;;;;;;;13.24;34.68;99967.69;5053285;28;21009;-82
2024/03/20 10:51:33;;;;;;;;;;;;;;;13.23;38.07;99971.34;5044943;28;19917;-81
2024/03/20 10:53:58;;;;;;;;;;;;;;;13.11;37.97;99964.84;5032912;28;19967;-82
2024/03/20 10:56:24;;;;;;;;;;;;;;;13.02;36.76;99957.97;5041877;28;20402;-81
2024/03/20 10:59:09;;;;;;;;;;;;;;;13.01;39.15;99959.00;5046103;28;19912;-82
2024/03/20 11:01:36;;;;;;;;;;;;;;;13.08;38.07;99956.41;5037343;28;20311;-82
2024/03/20 11:04:01;;;;;;;;;;;;;;;13.29;36.51;99954.69;5034893;28;19921;-82
2024/03/20 11:06:28;;;;;;;;;;;;;;;14.00;36.73;99955.69;5036814;28;20000;-81
2024/03/20 11:09:08;;;;;;;;;;;;;;;14.75;35.85;99946.31;5033210;28;19921;-82
2024/03/20 11:11:33;;;;;;;;;;;;;;;15.54;35.16;99944.03;5033208;28;19920;-81
2024/03/20 11:14:03;;;;;;;;;;;;;;;15.95;34.86;99945.81;5046530;28;19917;-81
2024/03/20 11:16:30;;;;;;;;;;;;;;;15.73;35.35;99945.16;5032774;28;19927;-81
2024/03/20 11:18:56;;;;;;;;;;;;;;;15.40;34.01;99941.53;5041769;28;19917;-81
2024/03/20 11:21:23;;;;;;;;;;;;;;;15.00;35.55;99938.72;5043184;28;19917;-82
2024/03/20 11:23:48;;;;;;;;;;;;;;;14.74;34.75;99936.69;5049671;28;19916;-82
2024/03/20 11:26:14;;;;;;;;;;;;;;;14.43;34.42;99939.75;5050711;28;19915;-82
2024/03/20 11:28:44;;;;;;;;;;;;;;;14.52;34.50;99937.78;5034242;28;19928;-81
2024/03/20 11:31:10;;;;;;;;;;;;;;;14.45;35.20;99944.88;5050058;28;19913;-81
2024/03/20 11:33:36;;;;;;;;;;;;;;;14.84;34.32;99949.63;5051503;28;19936;-81
2024/03/20 11:36:02;;;;;;;;;;;;;;;14.86;34.00;99940.47;5052425;28;19919;-81
2024/03/20 11:38:29;;;;;;;;;;;;;;;15.23;32.85;99941.06;5052612;28;19913;-81
2024/03/20 11:41:00;;;;;;;;;;;;;;;15.41;32.41;99940.50;5036622;28;20413;-80
2024/03/20 11:43:26;;;;;;;;;;;;;;;15.76;33.63;99942.09;5036821;28;19952;-80
2024/03/20 11:45:51;;;;;;;;;;;;;;;15.98;32.00;99936.59;5052047;28;19912;-80
2024/03/20 11:48:16;;;;;;;;;;;;;;;16.26;31.44;99939.06;5050747;28;19916;-80
2024/03/20 11:50:42;;;;;;;;;;;;;;;16.60;30.55;99936.22;5052077;28;19913;-81
2024/03/20 11:53:09;;;;;;;;;;;;;;;16.66;32.14;99930.06;5039903;28;20429;-80
2024/03/20 11:55:35;;;;;;;;;;;;;;;16.76;32.00;99932.31;5051817;28;19913;-81
2024/03/20 11:58:02;;;;;;;;;;;;;;;16.87;31.39;99929.00;5038291;28;20445;-80
2024/03/20 12:00:27;;;;;;;;;;;;;;;16.26;32.37;99819.19;5044677;28;19982;-80
2024/03/20 12:02:53;;;;;;;;;;;;;;;16.49;29.62;99918.19;5051900;28;20394;-81
2024/03/20 12:05:20;;;;;;;;;;;;;;;16.41;33.39;99916.56;5032998;28;20016;-80
2024/03/20 12:07:54;;;;;;;;;;;;;;;16.37;31.72;99919.84;5031815;28;19924;-80
2024/03/20 12:10:48;;;;;;;;;;;;;;;16.33;33.41;99910.59;5030690;28;20024;-81
2024/03/20 12:13:13;;;;;;;;;;;;;;;16.47;32.00;99921.06;5023260;28;19924;-81
2024/03/20 12:15:39;;;;;;;;;;;;;;;16.46;32.11;99915.94;5035668;28;19995;-81
2024/03/20 12:18:05;;;;;;;;;;;;;;;16.29;31.18;99915.50;5040623;28;19966;-81
2024/03/20 12:20:31;;;;;;;;;;;;;;;16.32;30.39;99917.75;5031743;28;19955;-81
2024/03/20 12:22:56;;;;;;;;;;;;;;;16.25;32.68;99918.78;5031763;28;20299;-81
2024/03/20 12:25:25;;;;;;;;;;;;;;;16.15;33.59;99916.53;5034269;28;20058;-81
2024/03/20 12:27:50;;;;;;;;;;;;;;;16.22;33.40;99906.69;5049892;28;19924;-82
2024/03/20 12:30:16;;;;;;;;;;;;;;;16.12;33.18;99919.59;5045324;28;19938;-82
2024/03/20 12:32:41;;;;;;;;;;;;;;;16.11;32.21;99913.47;5031494;28;20428;-81
2024/03/20 12:35:06;;;;;;;;;;;;;;;16.06;32.76;99909.78;5031235;28;20004;-84
2024/03/20 12:37:32;;;;;;;;;;;;;;;16.06;33.52;99910.59;5037001;28;19921;-80
2024/03/20 12:39:57;;;;;;;;;;;;;;;15.99;32.80;99912.44;5031361;28;20350;-81
2024/03/20 12:42:23;;;;;;;;;;;;;;;15.97;33.75;99914.47;5030017;28;19913;-81
2024/03/20 12:44:48;;;;;;;;;;;;;;;15.87;33.55;99911.41;5033770;28;19917;-81
2024/03/20 12:47:14;;;;;;;;;;;;;;;15.79;33.12;99904.44;5031615;28;20402;-80